sensor_id;sensor_type;location;lat;lon;timestamp;P1;durP1;ratioP1;P2;durP2;ratioP2
14121;SDS011;7139;48.114;11.442;2023-12-14T00:01:11;1.40;;;1.30;;
14121;SDS011;7139;48.114;11.442;2023-12-14T00:03:38;1.30;;;1.10;;
14121;SDS011;7139;48.114;11.442;2023-12-14T00:06:07;1.13;;;1.03;;
14121;SDS011;7139;48.114;11.442;2023-12-14T00:08:35;1.07;;;1.07;;
14121;SDS011;7139;48.114;11.442;2023-12-14T00:11:03;1.20;;;1.10;;
14121;SDS011;7139;48.114;11.442;2023-12-14T00:13:30;2.10;;;1.30;;
14121;SDS011;7139;48.114;11.442;2023-12-14T00:15:57;1.47;;;1.20;;
14121;SDS011;7139;48.114;11.442;2023-12-14T00:18:24;1.30;;;1.20;;
14121;SDS011;7139;48.114;11.442;2023-12-14T00:20:51;1.27;;;1.13;;
14121;SDS011;7139;48.114;11.442;2023-12-14T00:23:20;2.30;;;1.10;;
14121;SDS011;7139;48.114;11.442;2023-12-14T00:25:47;1.40;;;1.30;;
14121;SDS011;7139;48.114;11.442;2023-12-14T00:28:14;1.40;;;1.30;;
14121;SDS011;7139;48.114;11.442;2023-12-14T00:30:41;1.43;;;1.30;;
14121;SDS011;7139;48.114;11.442;2023-12-14T00:33:08;1.87;;;1.40;;
14121;SDS011;7139;48.114;11.442;2023-12-14T00:35:35;1.40;;;1.30;;
14121;SDS011;7139;48.114;11.442;2023-12-14T00:38:02;1.30;;;1.20;;
14121;SDS011;7139;48.114;11.442;2023-12-14T00:40:31;1.67;;;1.50;;
14121;SDS011;7139;48.114;11.442;2023-12-14T00:42:58;1.27;;;1.23;;
14121;SDS011;7139;48.114;11.442;2023-12-14T00:45:25;2.33;;;1.60;;
14121;SDS011;7139;48.114;11.442;2023-12-14T00:47:52;2.50;;;1.50;;
14121;SDS011;7139;48.114;11.442;2023-12-14T00:50:19;2.70;;;1.43;;
14121;SDS011;7139;48.114;11.442;2023-12-14T00:52:46;1.73;;;1.40;;
14121;SDS011;7139;48.114;11.442;2023-12-14T00:55:13;1.33;;;1.23;;
14121;SDS011;7139;48.114;11.442;2023-12-14T00:57:42;1.40;;;1.30;;
14121;SDS011;7139;48.114;11.442;2023-12-14T01:00:09;1.70;;;1.60;;
14121;SDS011;7139;48.114;11.442;2023-12-14T01:02:37;1.57;;;1.40;;
14121;SDS011;7139;48.114;11.442;2023-12-14T01:05:05;1.30;;;1.20;;
14121;SDS011;7139;48.114;11.442;2023-12-14T01:07:32;1.47;;;1.37;;
14121;SDS011;7139;48.114;11.442;2023-12-14T01:09:59;2.20;;;1.50;;
14121;SDS011;7139;48.114;11.442;2023-12-14T01:12:26;1.53;;;1.40;;
14121;SDS011;7139;48.114;11.442;2023-12-14T01:14:54;1.30;;;1.20;;
14121;SDS011;7139;48.114;11.442;2023-12-14T01:17:21;1.33;;;1.23;;
14121;SDS011;7139;48.114;11.442;2023-12-14T01:19:49;1.40;;;1.30;;
14121;SDS011;7139;48.114;11.442;2023-12-14T01:22:16;1.33;;;1.23;;
14121;SDS011;7139;48.114;11.442;2023-12-14T01:24:43;1.30;;;1.20;;
14121;SDS011;7139;48.114;11.442;2023-12-14T01:27:10;1.33;;;1.23;;
14121;SDS011;7139;48.114;11.442;2023-12-14T01:29:38;1.40;;;1.30;;
14121;SDS011;7139;48.114;11.442;2023-12-14T01:32:07;1.27;;;1.17;;
14121;SDS011;7139;48.114;11.442;2023-12-14T01:34:34;4.83;;;4.33;;
14121;SDS011;7139;48.114;11.442;2023-12-14T01:37:01;2.53;;;2.00;;
14121;SDS011;7139;48.114;11.442;2023-12-14T01:39:28;1.30;;;1.20;;
14121;SDS011;7139;48.114;11.442;2023-12-14T01:41:55;1.20;;;1.10;;
14121;SDS011;7139;48.114;11.442;2023-12-14T01:44:22;1.50;;;1.23;;
14121;SDS011;7139;48.114;11.442;2023-12-14T01:46:50;1.27;;;1.17;;
14121;SDS011;7139;48.114;11.442;2023-12-14T01:49:18;1.83;;;1.10;;
14121;SDS011;7139;48.114;11.442;2023-12-14T01:51:46;1.43;;;1.20;;
14121;SDS011;7139;48.114;11.442;2023-12-14T01:54:13;1.60;;;1.00;;
14121;SDS011;7139;48.114;11.442;2023-12-14T01:56:40;2.60;;;1.30;;
14121;SDS011;7139;48.114;11.442;2023-12-14T01:59:07;1.13;;;1.13;;
14121;SDS011;7139;48.114;11.442;2023-12-14T02:01:35;1.30;;;1.20;;
14121;SDS011;7139;48.114;11.442;2023-12-14T02:04:05;1.53;;;1.17;;
14121;SDS011;7139;48.114;11.442;2023-12-14T02:06:33;4.23;;;3.50;;
14121;SDS011;7139;48.114;11.442;2023-12-14T02:09:01;1.50;;;1.40;;
14121;SDS011;7139;48.114;11.442;2023-12-14T02:11:28;2.37;;;1.40;;
14121;SDS011;7139;48.114;11.442;2023-12-14T02:13:55;1.50;;;1.40;;
14121;SDS011;7139;48.114;11.442;2023-12-14T02:16:22;1.27;;;1.17;;
14121;SDS011;7139;48.114;11.442;2023-12-14T02:18:49;1.13;;;1.10;;
14121;SDS011;7139;48.114;11.442;2023-12-14T02:21:16;1.33;;;1.23;;
14121;SDS011;7139;48.114;11.442;2023-12-14T02:23:45;1.47;;;1.37;;
14121;SDS011;7139;48.114;11.442;2023-12-14T02:26:12;1.47;;;1.37;;
14121;SDS011;7139;48.114;11.442;2023-12-14T02:28:39;1.60;;;1.50;;
14121;SDS011;7139;48.114;11.442;2023-12-14T02:31:06;1.50;;;1.40;;
14121;SDS011;7139;48.114;11.442;2023-12-14T02:33:34;1.37;;;1.23;;
14121;SDS011;7139;48.114;11.442;2023-12-14T02:36:01;1.30;;;1.20;;
14121;SDS011;7139;48.114;11.442;2023-12-14T02:38:29;2.00;;;1.30;;
14121;SDS011;7139;48.114;11.442;2023-12-14T02:40:57;1.73;;;1.63;;
14121;SDS011;7139;48.114;11.442;2023-12-14T02:43:24;1.70;;;1.40;;
14121;SDS011;7139;48.114;11.442;2023-12-14T02:45:51;1.23;;;1.13;;
14121;SDS011;7139;48.114;11.442;2023-12-14T02:48:20;1.20;;;1.10;;
14121;SDS011;7139;48.114;11.442;2023-12-14T02:50:47;1.40;;;1.30;;
14121;SDS011;7139;48.114;11.442;2023-12-14T02:53:14;1.30;;;1.20;;
14121;SDS011;7139;48.114;11.442;2023-12-14T02:55:41;1.30;;;1.20;;
14121;SDS011;7139;48.114;11.442;2023-12-14T02:58:10;1.40;;;1.30;;
14121;SDS011;7139;48.114;11.442;2023-12-14T03:00:37;1.50;;;1.40;;
14121;SDS011;7139;48.114;11.442;2023-12-14T03:03:04;1.50;;;1.40;;
14121;SDS011;7139;48.114;11.442;2023-12-14T03:05:31;1.40;;;1.30;;
14121;SDS011;7139;48.114;11.442;2023-12-14T03:07:58;1.40;;;1.30;;
14121;SDS011;7139;48.114;11.442;2023-12-14T03:10:25;1.40;;;1.30;;
14121;SDS011;7139;48.114;11.442;2023-12-14T03:12:52;1.80;;;1.70;;
14121;SDS011;7139;48.114;11.442;2023-12-14T03:15:21;1.40;;;1.30;;
14121;SDS011;7139;48.114;11.442;2023-12-14T03:17:48;1.50;;;1.40;;
14121;SDS011;7139;48.114;11.442;2023-12-14T03:20:15;1.43;;;1.33;;
14121;SDS011;7139;48.114;11.442;2023-12-14T03:22:42;1.50;;;1.40;;
14121;SDS011;7139;48.114;11.442;2023-12-14T03:25:09;1.40;;;1.30;;
14121;SDS011;7139;48.114;11.442;2023-12-14T03:27:36;1.60;;;1.50;;
14121;SDS011;7139;48.114;11.442;2023-12-14T03:30:04;1.93;;;1.40;;
14121;SDS011;7139;48.114;11.442;2023-12-14T03:32:36;1.50;;;1.40;;
14121;SDS011;7139;48.114;11.442;2023-12-14T03:35:03;1.50;;;1.40;;
14121;SDS011;7139;48.114;11.442;2023-12-14T03:37:30;2.37;;;1.40;;
14121;SDS011;7139;48.114;11.442;2023-12-14T03:39:57;1.60;;;1.50;;
14121;SDS011;7139;48.114;11.442;2023-12-14T03:42:24;1.40;;;1.30;;
14121;SDS011;7139;48.114;11.442;2023-12-14T03:44:51;1.57;;;1.47;;
14121;SDS011;7139;48.114;11.442;2023-12-14T03:47:19;1.40;;;1.30;;
14121;SDS011;7139;48.114;11.442;2023-12-14T03:49:47;1.13;;;1.13;;
14121;SDS011;7139;48.114;11.442;2023-12-14T03:52:15;1.37;;;1.27;;
14121;SDS011;7139;48.114;11.442;2023-12-14T03:54:42;1.40;;;1.30;;
14121;SDS011;7139;48.114;11.442;2023-12-14T03:57:09;1.57;;;1.43;;
14121;SDS011;7139;48.114;11.442;2023-12-14T03:59:38;1.30;;;1.20;;
14121;SDS011;7139;48.114;11.442;2023-12-14T04:02:05;1.30;;;1.20;;
14121;SDS011;7139;48.114;11.442;2023-12-14T04:04:32;1.53;;;1.43;;
14121;SDS011;7139;48.114;11.442;2023-12-14T04:07:01;1.73;;;1.63;;
14121;SDS011;7139;48.114;11.442;2023-12-14T04:09:28;1.97;;;1.50;;
14121;SDS011;7139;48.114;11.442;2023-12-14T04:11:55;1.73;;;1.30;;
14121;SDS011;7139;48.114;11.442;2023-12-14T04:14:22;1.50;;;1.40;;
14121;SDS011;7139;48.114;11.442;2023-12-14T04:16:48;1.50;;;1.40;;
14121;SDS011;7139;48.114;11.442;2023-12-14T04:19:15;1.50;;;1.40;;
14121;SDS011;7139;48.114;11.442;2023-12-14T04:21:42;1.40;;;1.30;;
14121;SDS011;7139;48.114;11.442;2023-12-14T04:24:11;1.30;;;1.20;;
14121;SDS011;7139;48.114;11.442;2023-12-14T04:26:38;1.33;;;1.20;;
14121;SDS011;7139;48.114;11.442;2023-12-14T04:29:05;1.30;;;1.20;;
14121;SDS011;7139;48.114;11.442;2023-12-14T04:31:34;1.33;;;1.23;;
14121;SDS011;7139;48.114;11.442;2023-12-14T04:34:01;1.00;;;1.00;;
14121;SDS011;7139;48.114;11.442;2023-12-14T04:36:28;1.30;;;1.20;;
14121;SDS011;7139;48.114;11.442;2023-12-14T04:38:55;1.10;;;1.00;;
14121;SDS011;7139;48.114;11.442;2023-12-14T04:41:23;1.10;;;1.10;;
14121;SDS011;7139;48.114;11.442;2023-12-14T04:43:50;1.07;;;0.90;;
14121;SDS011;7139;48.114;11.442;2023-12-14T04:46:18;1.10;;;1.10;;
14121;SDS011;7139;48.114;11.442;2023-12-14T04:48:45;1.10;;;1.00;;
14121;SDS011;7139;48.114;11.442;2023-12-14T04:51:12;1.00;;;1.00;;
14121;SDS011;7139;48.114;11.442;2023-12-14T04:53:39;0.97;;;0.90;;
14121;SDS011;7139;48.114;11.442;2023-12-14T04:56:09;1.30;;;0.80;;
14121;SDS011;7139;48.114;11.442;2023-12-14T04:58:38;0.80;;;0.80;;
14121;SDS011;7139;48.114;11.442;2023-12-14T05:01:05;0.93;;;0.93;;
14121;SDS011;7139;48.114;11.442;2023-12-14T05:03:33;1.10;;;0.90;;
14121;SDS011;7139;48.114;11.442;2023-12-14T05:06:00;1.60;;;1.10;;
14121;SDS011;7139;48.114;11.442;2023-12-14T05:08:27;0.80;;;0.80;;
14121;SDS011;7139;48.114;11.442;2023-12-14T05:10:54;2.37;;;1.27;;
14121;SDS011;7139;48.114;11.442;2023-12-14T05:13:21;0.90;;;0.90;;
14121;SDS011;7139;48.114;11.442;2023-12-14T05:15:50;1.10;;;1.00;;
14121;SDS011;7139;48.114;11.442;2023-12-14T05:18:17;1.20;;;1.10;;
14121;SDS011;7139;48.114;11.442;2023-12-14T05:20:45;1.20;;;1.10;;
14121;SDS011;7139;48.114;11.442;2023-12-14T05:23:12;1.30;;;1.20;;
14121;SDS011;7139;48.114;11.442;2023-12-14T05:25:39;1.67;;;1.20;;
14121;SDS011;7139;48.114;11.442;2023-12-14T05:28:06;1.73;;;1.20;;
14121;SDS011;7139;48.114;11.442;2023-12-14T05:30:33;2.07;;;1.30;;
14121;SDS011;7139;48.114;11.442;2023-12-14T05:33:02;1.67;;;1.47;;
14121;SDS011;7139;48.114;11.442;2023-12-14T05:35:29;2.03;;;1.50;;
14121;SDS011;7139;48.114;11.442;2023-12-14T05:37:56;2.07;;;1.43;;
14121;SDS011;7139;48.114;11.442;2023-12-14T05:40:23;2.20;;;1.60;;
14121;SDS011;7139;48.114;11.442;2023-12-14T05:42:50;2.30;;;1.60;;
14121;SDS011;7139;48.114;11.442;2023-12-14T05:45:17;2.30;;;1.70;;
14121;SDS011;7139;48.114;11.442;2023-12-14T05:47:44;1.70;;;1.50;;
14121;SDS011;7139;48.114;11.442;2023-12-14T05:50:13;3.80;;;2.60;;
14121;SDS011;7139;48.114;11.442;2023-12-14T05:52:40;2.30;;;1.80;;
14121;SDS011;7139;48.114;11.442;2023-12-14T05:55:07;1.77;;;1.60;;
14121;SDS011;7139;48.114;11.442;2023-12-14T05:57:35;1.80;;;1.70;;
14121;SDS011;7139;48.114;11.442;2023-12-14T06:00:02;2.00;;;1.80;;
14121;SDS011;7139;48.114;11.442;2023-12-14T06:02:30;1.90;;;1.50;;
14121;SDS011;7139;48.114;11.442;2023-12-14T06:04:57;3.47;;;1.87;;
14121;SDS011;7139;48.114;11.442;2023-12-14T06:07:26;1.70;;;1.60;;
14121;SDS011;7139;48.114;11.442;2023-12-14T06:09:53;2.93;;;1.97;;
14121;SDS011;7139;48.114;11.442;2023-12-14T06:12:20;2.17;;;1.90;;
14121;SDS011;7139;48.114;11.442;2023-12-14T06:14:47;2.17;;;1.90;;
14121;SDS011;7139;48.114;11.442;2023-12-14T06:17:15;2.00;;;1.80;;
14121;SDS011;7139;48.114;11.442;2023-12-14T06:19:42;3.03;;;1.93;;
14121;SDS011;7139;48.114;11.442;2023-12-14T06:22:09;3.13;;;2.23;;
14121;SDS011;7139;48.114;11.442;2023-12-14T06:24:37;2.40;;;2.20;;
14121;SDS011;7139;48.114;11.442;2023-12-14T06:27:04;2.80;;;2.37;;
14121;SDS011;7139;48.114;11.442;2023-12-14T06:29:31;3.43;;;2.73;;
14121;SDS011;7139;48.114;11.442;2023-12-14T06:31:58;3.57;;;2.57;;
14121;SDS011;7139;48.114;11.442;2023-12-14T06:34:25;2.70;;;2.50;;
14121;SDS011;7139;48.114;11.442;2023-12-14T06:36:52;3.17;;;2.43;;
14121;SDS011;7139;48.114;11.442;2023-12-14T06:39:20;4.70;;;2.93;;
14121;SDS011;7139;48.114;11.442;2023-12-14T06:41:51;3.60;;;2.47;;
14121;SDS011;7139;48.114;11.442;2023-12-14T06:44:18;3.47;;;3.07;;
14121;SDS011;7139;48.114;11.442;2023-12-14T06:46:45;4.73;;;2.97;;
14121;SDS011;7139;48.114;11.442;2023-12-14T06:49:12;5.13;;;3.50;;
14121;SDS011;7139;48.114;11.442;2023-12-14T06:51:39;6.70;;;4.23;;
14121;SDS011;7139;48.114;11.442;2023-12-14T06:54:07;8.17;;;5.47;;
14121;SDS011;7139;48.114;11.442;2023-12-14T06:56:35;8.10;;;5.80;;
14121;SDS011;7139;48.114;11.442;2023-12-14T06:59:04;8.33;;;6.47;;
14121;SDS011;7139;48.114;11.442;2023-12-14T07:01:31;10.10;;;7.13;;
14121;SDS011;7139;48.114;11.442;2023-12-14T07:03:58;13.03;;;8.20;;
14121;SDS011;7139;48.114;11.442;2023-12-14T07:06:25;7.83;;;6.87;;
14121;SDS011;7139;48.114;11.442;2023-12-14T07:08:52;7.83;;;5.60;;
14121;SDS011;7139;48.114;11.442;2023-12-14T07:11:19;6.57;;;5.03;;
14121;SDS011;7139;48.114;11.442;2023-12-14T07:13:46;6.37;;;4.97;;
14121;SDS011;7139;48.114;11.442;2023-12-14T07:16:15;6.17;;;4.97;;
14121;SDS011;7139;48.114;11.442;2023-12-14T07:18:42;4.93;;;4.43;;
14121;SDS011;7139;48.114;11.442;2023-12-14T07:21:10;5.00;;;4.33;;
14121;SDS011;7139;48.114;11.442;2023-12-14T07:23:37;5.53;;;4.47;;
14121;SDS011;7139;48.114;11.442;2023-12-14T07:26:04;5.07;;;4.60;;
14121;SDS011;7139;48.114;11.442;2023-12-14T07:28:31;6.33;;;4.90;;
14121;SDS011;7139;48.114;11.442;2023-12-14T07:30:58;5.30;;;4.37;;
14121;SDS011;7139;48.114;11.442;2023-12-14T07:33:27;5.30;;;4.80;;
14121;SDS011;7139;48.114;11.442;2023-12-14T07:35:54;4.83;;;4.43;;
14121;SDS011;7139;48.114;11.442;2023-12-14T07:38:21;5.77;;;4.73;;
14121;SDS011;7139;48.114;11.442;2023-12-14T07:40:48;6.53;;;5.87;;
14121;SDS011;7139;48.114;11.442;2023-12-14T07:43:17;6.20;;;5.60;;
14121;SDS011;7139;48.114;11.442;2023-12-14T07:45:44;5.73;;;5.00;;
14121;SDS011;7139;48.114;11.442;2023-12-14T07:48:11;6.30;;;5.03;;
14121;SDS011;7139;48.114;11.442;2023-12-14T07:50:39;5.60;;;4.70;;
14121;SDS011;7139;48.114;11.442;2023-12-14T07:53:06;5.40;;;4.90;;
14121;SDS011;7139;48.114;11.442;2023-12-14T07:55:34;5.10;;;4.60;;
14121;SDS011;7139;48.114;11.442;2023-12-14T07:58:01;5.30;;;4.80;;
14121;SDS011;7139;48.114;11.442;2023-12-14T08:00:28;5.30;;;4.80;;
14121;SDS011;7139;48.114;11.442;2023-12-14T08:02:55;6.20;;;5.60;;
14121;SDS011;7139;48.114;11.442;2023-12-14T08:05:22;6.40;;;5.63;;
14121;SDS011;7139;48.114;11.442;2023-12-14T08:07:50;6.20;;;5.43;;
14121;SDS011;7139;48.114;11.442;2023-12-14T08:10:18;6.33;;;5.73;;
14121;SDS011;7139;48.114;11.442;2023-12-14T08:12:46;5.77;;;5.20;;
14121;SDS011;7139;48.114;11.442;2023-12-14T08:15:13;5.97;;;5.20;;
14121;SDS011;7139;48.114;11.442;2023-12-14T08:17:41;6.87;;;5.80;;
14121;SDS011;7139;48.114;11.442;2023-12-14T08:20:09;6.43;;;5.30;;
14121;SDS011;7139;48.114;11.442;2023-12-14T08:22:38;5.67;;;5.13;;
14121;SDS011;7139;48.114;11.442;2023-12-14T08:25:10;6.20;;;5.60;;
14121;SDS011;7139;48.114;11.442;2023-12-14T08:27:36;6.73;;;6.03;;
14121;SDS011;7139;48.114;11.442;2023-12-14T08:30:04;6.97;;;5.47;;
14121;SDS011;7139;48.114;11.442;2023-12-14T08:32:31;6.10;;;5.50;;
14121;SDS011;7139;48.114;11.442;2023-12-14T08:34:58;6.50;;;5.80;;
14121;SDS011;7139;48.114;11.442;2023-12-14T08:37:25;6.50;;;5.90;;
14121;SDS011;7139;48.114;11.442;2023-12-14T08:39:52;6.57;;;5.97;;
14121;SDS011;7139;48.114;11.442;2023-12-14T08:42:21;7.47;;;5.97;;
14121;SDS011;7139;48.114;11.442;2023-12-14T08:44:49;6.57;;;5.97;;
14121;SDS011;7139;48.114;11.442;2023-12-14T08:47:16;6.60;;;6.00;;
14121;SDS011;7139;48.114;11.442;2023-12-14T08:49:43;6.13;;;5.40;;
14121;SDS011;7139;48.114;11.442;2023-12-14T08:52:10;6.17;;;5.57;;
14121;SDS011;7139;48.114;11.442;2023-12-14T08:54:39;7.13;;;5.97;;
14121;SDS011;7139;48.114;11.442;2023-12-14T08:57:08;6.83;;;6.13;;
14121;SDS011;7139;48.114;11.442;2023-12-14T08:59:36;6.47;;;5.87;;
14121;SDS011;7139;48.114;11.442;2023-12-14T09:02:04;6.33;;;5.50;;
14121;SDS011;7139;48.114;11.442;2023-12-14T09:04:31;6.37;;;5.77;;
14121;SDS011;7139;48.114;11.442;2023-12-14T09:07:00;6.73;;;5.80;;
14121;SDS011;7139;48.114;11.442;2023-12-14T09:09:29;5.83;;;5.30;;
14121;SDS011;7139;48.114;11.442;2023-12-14T09:11:56;6.27;;;5.77;;
14121;SDS011;7139;48.114;11.442;2023-12-14T09:14:23;5.90;;;5.33;;
14121;SDS011;7139;48.114;11.442;2023-12-14T09:16:51;6.53;;;5.93;;
14121;SDS011;7139;48.114;11.442;2023-12-14T09:19:19;5.77;;;5.20;;
14121;SDS011;7139;48.114;11.442;2023-12-14T09:21:46;6.07;;;5.47;;
14121;SDS011;7139;48.114;11.442;2023-12-14T09:24:13;5.53;;;5.03;;
14121;SDS011;7139;48.114;11.442;2023-12-14T09:26:40;5.47;;;4.97;;
14121;SDS011;7139;48.114;11.442;2023-12-14T09:29:07;7.83;;;5.53;;
14121;SDS011;7139;48.114;11.442;2023-12-14T09:31:34;5.97;;;5.37;;
14121;SDS011;7139;48.114;11.442;2023-12-14T09:34:03;6.60;;;5.93;;
14121;SDS011;7139;48.114;11.442;2023-12-14T09:36:30;5.40;;;4.90;;
14121;SDS011;7139;48.114;11.442;2023-12-14T09:38:57;5.40;;;4.90;;
14121;SDS011;7139;48.114;11.442;2023-12-14T09:41:24;5.10;;;4.60;;
14121;SDS011;7139;48.114;11.442;2023-12-14T09:43:51;4.93;;;4.43;;
14121;SDS011;7139;48.114;11.442;2023-12-14T09:46:19;4.93;;;4.10;;
14121;SDS011;7139;48.114;11.442;2023-12-14T09:48:48;5.37;;;4.57;;
14121;SDS011;7139;48.114;11.442;2023-12-14T09:51:18;4.67;;;4.17;;
14121;SDS011;7139;48.114;11.442;2023-12-14T09:53:45;4.50;;;4.10;;
14121;SDS011;7139;48.114;11.442;2023-12-14T09:56:12;4.07;;;3.67;;
14121;SDS011;7139;48.114;11.442;2023-12-14T09:58:39;4.40;;;4.00;;
14121;SDS011;7139;48.114;11.442;2023-12-14T10:01:20;4.33;;;3.83;;
14121;SDS011;7139;48.114;11.442;2023-12-14T10:03:48;3.47;;;3.17;;
14121;SDS011;7139;48.114;11.442;2023-12-14T10:06:15;6.40;;;2.73;;
14121;SDS011;7139;48.114;11.442;2023-12-14T10:08:43;3.20;;;2.90;;
14121;SDS011;7139;48.114;11.442;2023-12-14T10:11:20;3.53;;;2.43;;
14121;SDS011;7139;48.114;11.442;2023-12-14T10:13:47;2.93;;;2.43;;
14121;SDS011;7139;48.114;11.442;2023-12-14T10:16:26;3.60;;;2.70;;
14121;SDS011;7139;48.114;11.442;2023-12-14T10:18:53;2.80;;;2.60;;
14121;SDS011;7139;48.114;11.442;2023-12-14T10:21:20;2.97;;;2.67;;
14121;SDS011;7139;48.114;11.442;2023-12-14T10:23:48;3.23;;;2.40;;
14121;SDS011;7139;48.114;11.442;2023-12-14T10:26:15;3.10;;;2.90;;
14121;SDS011;7139;48.114;11.442;2023-12-14T10:28:42;2.80;;;2.60;;
14121;SDS011;7139;48.114;11.442;2023-12-14T10:31:09;3.63;;;2.87;;
14121;SDS011;7139;48.114;11.442;2023-12-14T10:33:37;3.57;;;2.90;;
14121;SDS011;7139;48.114;11.442;2023-12-14T10:36:05;3.20;;;2.90;;
14121;SDS011;7139;48.114;11.442;2023-12-14T10:38:33;2.90;;;2.57;;
14121;SDS011;7139;48.114;11.442;2023-12-14T10:41:02;3.27;;;2.93;;
14121;SDS011;7139;48.114;11.442;2023-12-14T10:43:30;2.80;;;2.60;;
14121;SDS011;7139;48.114;11.442;2023-12-14T10:45:58;2.90;;;2.47;;
14121;SDS011;7139;48.114;11.442;2023-12-14T10:48:25;2.93;;;2.63;;
14121;SDS011;7139;48.114;11.442;2023-12-14T10:50:53;3.23;;;2.70;;
14121;SDS011;7139;48.114;11.442;2023-12-14T10:53:22;3.30;;;3.00;;
14121;SDS011;7139;48.114;11.442;2023-12-14T10:55:50;3.20;;;2.90;;
14121;SDS011;7139;48.114;11.442;2023-12-14T10:58:19;2.77;;;2.50;;
14121;SDS011;7139;48.114;11.442;2023-12-14T11:00:52;2.77;;;2.57;;
14121;SDS011;7139;48.114;11.442;2023-12-14T11:03:25;4.33;;;3.97;;
14121;SDS011;7139;48.114;11.442;2023-12-14T11:05:52;3.27;;;2.97;;
14121;SDS011;7139;48.114;11.442;2023-12-14T11:08:19;2.80;;;2.60;;
14121;SDS011;7139;48.114;11.442;2023-12-14T11:10:52;3.27;;;2.97;;
14121;SDS011;7139;48.114;11.442;2023-12-14T11:13:21;2.77;;;2.57;;
14121;SDS011;7139;48.114;11.442;2023-12-14T11:15:49;2.47;;;2.27;;
14121;SDS011;7139;48.114;11.442;2023-12-14T11:18:20;2.33;;;2.13;;
14121;SDS011;7139;48.114;11.442;2023-12-14T11:20:47;2.70;;;2.37;;
14121;SDS011;7139;48.114;11.442;2023-12-14T11:23:15;2.33;;;2.13;;
14121;SDS011;7139;48.114;11.442;2023-12-14T11:25:44;3.53;;;2.40;;
14121;SDS011;7139;48.114;11.442;2023-12-14T11:28:14;2.43;;;2.07;;
14121;SDS011;7139;48.114;11.442;2023-12-14T11:30:44;2.53;;;2.20;;
14121;SDS011;7139;48.114;11.442;2023-12-14T11:33:11;2.03;;;1.87;;
14121;SDS011;7139;48.114;11.442;2023-12-14T11:35:39;2.60;;;2.10;;
14121;SDS011;7139;48.114;11.442;2023-12-14T11:38:06;2.60;;;2.03;;
14121;SDS011;7139;48.114;11.442;2023-12-14T11:40:37;1.97;;;1.87;;
14121;SDS011;7139;48.114;11.442;2023-12-14T11:43:05;2.13;;;1.93;;
14121;SDS011;7139;48.114;11.442;2023-12-14T11:45:33;2.93;;;2.20;;
14121;SDS011;7139;48.114;11.442;2023-12-14T11:48:02;2.80;;;1.90;;
14121;SDS011;7139;48.114;11.442;2023-12-14T11:50:30;2.93;;;1.67;;
14121;SDS011;7139;48.114;11.442;2023-12-14T11:52:58;1.70;;;1.60;;
14121;SDS011;7139;48.114;11.442;2023-12-14T11:55:25;2.50;;;1.80;;
14121;SDS011;7139;48.114;11.442;2023-12-14T11:57:52;2.00;;;1.90;;
14121;SDS011;7139;48.114;11.442;2023-12-14T12:00:22;2.47;;;1.90;;
14121;SDS011;7139;48.114;11.442;2023-12-14T12:02:50;1.87;;;1.77;;
14121;SDS011;7139;48.114;11.442;2023-12-14T12:05:19;1.90;;;1.67;;
14121;SDS011;7139;48.114;11.442;2023-12-14T12:07:46;1.63;;;1.53;;
14121;SDS011;7139;48.114;11.442;2023-12-14T12:10:13;1.57;;;1.47;;
14121;SDS011;7139;48.114;11.442;2023-12-14T12:12:40;1.60;;;1.50;;
14121;SDS011;7139;48.114;11.442;2023-12-14T12:15:08;1.47;;;1.37;;
14121;SDS011;7139;48.114;11.442;2023-12-14T12:17:35;1.70;;;1.60;;
14121;SDS011;7139;48.114;11.442;2023-12-14T12:20:06;1.70;;;1.60;;
14121;SDS011;7139;48.114;11.442;2023-12-14T12:22:35;1.77;;;1.63;;
14121;SDS011;7139;48.114;11.442;2023-12-14T12:25:02;2.50;;;2.30;;
14121;SDS011;7139;48.114;11.442;2023-12-14T12:27:29;1.70;;;1.60;;
14121;SDS011;7139;48.114;11.442;2023-12-14T12:29:56;1.60;;;1.50;;
14121;SDS011;7139;48.114;11.442;2023-12-14T12:32:23;2.00;;;1.43;;
14121;SDS011;7139;48.114;11.442;2023-12-14T12:34:51;1.90;;;1.50;;
14121;SDS011;7139;48.114;11.442;2023-12-14T12:37:18;1.57;;;1.47;;
14121;SDS011;7139;48.114;11.442;2023-12-14T12:39:46;1.63;;;1.30;;
14121;SDS011;7139;48.114;11.442;2023-12-14T12:42:14;2.20;;;1.60;;
14121;SDS011;7139;48.114;11.442;2023-12-14T12:44:41;1.40;;;1.30;;
14121;SDS011;7139;48.114;11.442;2023-12-14T12:47:08;1.37;;;1.27;;
14121;SDS011;7139;48.114;11.442;2023-12-14T12:49:35;1.97;;;1.30;;
14121;SDS011;7139;48.114;11.442;2023-12-14T12:52:02;1.60;;;1.17;;
14121;SDS011;7139;48.114;11.442;2023-12-14T12:54:30;1.40;;;1.30;;
14121;SDS011;7139;48.114;11.442;2023-12-14T12:56:59;1.90;;;1.80;;
14121;SDS011;7139;48.114;11.442;2023-12-14T12:59:27;1.50;;;1.40;;
14121;SDS011;7139;48.114;11.442;2023-12-14T13:01:54;1.30;;;1.20;;
14121;SDS011;7139;48.114;11.442;2023-12-14T13:04:21;2.33;;;1.40;;
14121;SDS011;7139;48.114;11.442;2023-12-14T13:06:49;1.80;;;1.70;;
14121;SDS011;7139;48.114;11.442;2023-12-14T13:09:17;1.50;;;1.40;;
14121;SDS011;7139;48.114;11.442;2023-12-14T13:11:45;1.40;;;1.30;;
14121;SDS011;7139;48.114;11.442;2023-12-14T13:14:14;1.97;;;1.57;;
14121;SDS011;7139;48.114;11.442;2023-12-14T13:16:41;2.80;;;1.80;;
14121;SDS011;7139;48.114;11.442;2023-12-14T13:19:08;1.50;;;1.40;;
14121;SDS011;7139;48.114;11.442;2023-12-14T13:21:35;1.40;;;1.30;;
14121;SDS011;7139;48.114;11.442;2023-12-14T13:24:03;1.33;;;1.23;;
14121;SDS011;7139;48.114;11.442;2023-12-14T13:26:30;1.87;;;1.60;;
14121;SDS011;7139;48.114;11.442;2023-12-14T13:28:57;1.60;;;1.50;;
14121;SDS011;7139;48.114;11.442;2023-12-14T13:31:25;1.63;;;1.53;;
14121;SDS011;7139;48.114;11.442;2023-12-14T13:33:52;1.77;;;1.60;;
14121;SDS011;7139;48.114;11.442;2023-12-14T13:36:19;1.60;;;1.50;;
14121;SDS011;7139;48.114;11.442;2023-12-14T13:38:46;2.77;;;1.93;;
14121;SDS011;7139;48.114;11.442;2023-12-14T13:41:13;2.30;;;2.10;;
14121;SDS011;7139;48.114;11.442;2023-12-14T13:43:41;2.73;;;2.17;;
14121;SDS011;7139;48.114;11.442;2023-12-14T13:46:09;2.07;;;1.87;;
14121;SDS011;7139;48.114;11.442;2023-12-14T13:48:37;2.43;;;1.90;;
14121;SDS011;7139;48.114;11.442;2023-12-14T13:51:04;1.93;;;1.80;;
14121;SDS011;7139;48.114;11.442;2023-12-14T13:53:32;1.90;;;1.80;;
14121;SDS011;7139;48.114;11.442;2023-12-14T13:55:59;2.40;;;2.20;;
14121;SDS011;7139;48.114;11.442;2023-12-14T13:58:28;2.93;;;1.90;;
14121;SDS011;7139;48.114;11.442;2023-12-14T14:00:55;2.13;;;1.93;;
14121;SDS011;7139;48.114;11.442;2023-12-14T14:03:22;2.23;;;2.03;;
14121;SDS011;7139;48.114;11.442;2023-12-14T14:05:52;5.57;;;2.20;;
14121;SDS011;7139;48.114;11.442;2023-12-14T14:08:19;2.40;;;2.17;;
14121;SDS011;7139;48.114;11.442;2023-12-14T14:10:47;2.30;;;2.10;;
14121;SDS011;7139;48.114;11.442;2023-12-14T14:13:14;2.43;;;2.20;;
14121;SDS011;7139;48.114;11.442;2023-12-14T14:15:41;2.47;;;2.00;;
14121;SDS011;7139;48.114;11.442;2023-12-14T14:18:08;2.57;;;2.17;;
14121;SDS011;7139;48.114;11.442;2023-12-14T14:20:35;2.20;;;1.90;;
14121;SDS011;7139;48.114;11.442;2023-12-14T14:23:04;2.53;;;2.10;;
14121;SDS011;7139;48.114;11.442;2023-12-14T14:25:31;2.47;;;2.00;;
14121;SDS011;7139;48.114;11.442;2023-12-14T14:27:58;2.37;;;2.07;;
14121;SDS011;7139;48.114;11.442;2023-12-14T14:30:26;2.27;;;1.90;;
14121;SDS011;7139;48.114;11.442;2023-12-14T14:32:53;4.43;;;2.47;;
14121;SDS011;7139;48.114;11.442;2023-12-14T14:35:20;2.70;;;2.50;;
14121;SDS011;7139;48.114;11.442;2023-12-14T14:37:47;2.63;;;2.43;;
14121;SDS011;7139;48.114;11.442;2023-12-14T14:40:16;2.87;;;2.57;;
14121;SDS011;7139;48.114;11.442;2023-12-14T14:42:43;3.77;;;2.60;;
14121;SDS011;7139;48.114;11.442;2023-12-14T14:45:11;3.83;;;2.73;;
14121;SDS011;7139;48.114;11.442;2023-12-14T14:47:39;5.07;;;2.73;;
14121;SDS011;7139;48.114;11.442;2023-12-14T14:50:06;3.20;;;2.80;;